createdAt,value
2022-08-17T00:04:20.141Z,99866.80
2022-08-17T00:09:23.447Z,99866.96
2022-08-17T00:14:26.658Z,99866.47
2022-08-17T00:19:30.068Z,99862.67
2022-08-17T00:24:33.329Z,99863.66
2022-08-17T00:29:36.588Z,99867.23
2022-08-17T00:34:39.908Z,99858.90
2022-08-17T00:39:43.378Z,99858.00
2022-08-17T00:44:46.828Z,99863.42
2022-08-17T00:49:50.039Z,99870.30
2022-08-17T00:54:55.502Z,99873.06
2022-08-17T01:00:05.520Z,99874.96
2022-08-17T01:05:15.719Z,99873.88
2022-08-17T01:11:00.084Z,99872.59
2022-08-17T01:15:54.448Z,99885.05
2022-08-17T01:21:01.819Z,99889.64
2022-08-17T01:26:06.544Z,99894.65
2022-08-17T01:31:10.794Z,99893.70
2022-08-17T01:36:14.411Z,99892.02
2022-08-17T01:41:19.267Z,99894.56
2022-08-17T01:46:32.298Z,99894.55
2022-08-17T01:51:35.917Z,99900.91
2022-08-17T01:56:43.324Z,99897.54
2022-08-17T02:01:50.734Z,99898.98
2022-08-17T02:06:54.685Z,99894.30
2022-08-17T02:12:00.218Z,99889.53
2022-08-17T02:17:23.602Z,99886.69
2022-08-17T02:22:28.958Z,99888.14
2022-08-17T02:27:32.475Z,99891.06
2022-08-17T02:32:35.990Z,99886.14
2022-08-17T02:37:42.287Z,99881.60
2022-08-17T02:42:46.343Z,99875.34
2022-08-17T02:47:50.553Z,99883.26
2022-08-17T02:53:01.404Z,99883.25
2022-08-17T02:58:07.449Z,99876.33
2022-08-17T03:03:13.982Z,99875.66
2022-08-17T03:08:18.314Z,99880.05
2022-08-17T03:13:22.033Z,99879.86
2022-08-17T03:18:26.474Z,99880.60
2022-08-17T03:23:32.221Z,99884.30
2022-08-17T03:28:35.756Z,99885.54
2022-08-17T03:33:39.065Z,99887.79
2022-08-17T03:38:42.379Z,99889.49
2022-08-17T03:43:46.303Z,99893.45
2022-08-17T03:49:08.352Z,99892.63
2022-08-17T03:54:41.260Z,99891.65
2022-08-17T03:59:45.360Z,99897.77
2022-08-17T04:04:52.561Z,99901.77
2022-08-17T04:09:58.396Z,99908.02
2022-08-17T04:15:02.116Z,99905.80
2022-08-17T04:20:06.460Z,99912.14
2022-08-17T04:25:17.084Z,99909.92
2022-08-17T04:30:21.330Z,99913.13
2022-08-17T04:35:29.045Z,99920.36
2022-08-17T04:40:52.015Z,99918.74
2022-08-17T04:46:01.061Z,99921.50
2022-08-17T04:51:10.084Z,99916.36
2022-08-17T04:56:16.648Z,99916.42
2022-08-17T05:01:24.534Z,99920.16
2022-08-17T05:06:29.357Z,99922.30
2022-08-17T05:11:32.678Z,99923.96
2022-08-17T05:16:35.990Z,99930.38
2022-08-17T05:21:39.493Z,99938.94
2022-08-17T05:26:43.119Z,99946.84
2022-08-17T05:31:46.626Z,99947.26
2022-08-17T05:36:49.944Z,99944.73
2022-08-17T05:41:53.560Z,99945.70
2022-08-17T05:46:59.792Z,99944.32
2022-08-17T05:52:11.546Z,99950.64
2022-08-17T05:57:53.752Z,99953.44
2022-08-17T06:03:20.221Z,99952.16
2022-08-17T06:08:23.636Z,99952.61
2022-08-17T06:13:57.565Z,99958.69
2022-08-17T06:19:06.650Z,99964.81
2022-08-17T06:24:29.086Z,99964.39
2022-08-17T06:29:46.203Z,99966.16
2022-08-17T06:34:50.032Z,99972.94
2022-08-17T06:40:02.697Z,99976.88
2022-08-17T06:45:20.468Z,99976.20
2022-08-17T06:51:32.119Z,99978.79
2022-08-17T06:56:53.060Z,99979.45
2022-08-17T07:02:05.980Z,99987.26
2022-08-17T07:07:30.178Z,99989.33
2022-08-17T07:12:39.577Z,99989.75
2022-08-17T07:17:47.563Z,99986.83
2022-08-17T07:23:25.170Z,99985.34
2022-08-17T07:28:35.202Z,99984.46
2022-08-17T07:34:17.052Z,99989.81
2022-08-17T07:39:36.612Z,99989.70
2022-08-17T07:45:43.955Z,99989.66
2022-08-17T07:51:15.326Z,99990.86
2022-08-17T07:57:14.650Z,99990.09
2022-08-17T08:02:45.529Z,99986.81
2022-08-17T08:07:56.193Z,99989.20
2022-08-17T08:13:34.206Z,99985.39
2022-08-17T08:18:55.361Z,99980.39
2022-08-17T08:24:38.696Z,99976.27
2022-08-17T08:30:00.752Z,99977.70
2022-08-17T08:35:22.998Z,99977.84
2022-08-17T08:40:54.990Z,99979.05
2022-08-17T08:46:23.998Z,99980.66
2022-08-17T08:52:05.928Z,99979.05
2022-08-17T08:57:34.345Z,99974.70
2022-08-17T09:03:09.054Z,99969.46
2022-08-17T09:08:24.821Z,99968.66
2022-08-17T09:13:46.055Z,99971.63
2022-08-17T09:19:05.744Z,99974.91
2022-08-17T09:24:23.744Z,99965.84
2022-08-17T09:35:36.701Z,99961.35
2022-08-17T09:41:03.535Z,99963.77
2022-08-17T09:46:20.619Z,99968.46
2022-08-17T09:51:37.037Z,99970.09
2022-08-17T09:57:00.821Z,99962.63
2022-08-17T10:03:02.251Z,99952.30
2022-08-17T10:08:37.358Z,99949.91
2022-08-17T10:14:36.535Z,99953.30
2022-08-17T10:20:02.347Z,99955.03
2022-08-17T10:25:53.599Z,99951.50
2022-08-17T10:37:06.525Z,99948.38
2022-08-17T10:42:56.941Z,99950.86
2022-08-17T10:48:28.512Z,99950.87
2022-08-17T10:53:52.208Z,99946.98
2022-08-17T10:58:59.480Z,99943.50
2022-08-17T11:04:46.696Z,99942.13
2022-08-17T11:10:24.672Z,99942.98
2022-08-17T11:16:30.490Z,99938.55
2022-08-17T11:22:12.774Z,99936.55
2022-08-17T11:27:28.272Z,99933.01
2022-08-17T11:32:47.443Z,99933.09
2022-08-17T11:39:05.981Z,99934.55
2022-08-17T11:44:24.706Z,99933.76
2022-08-17T11:49:58.738Z,99930.67
2022-08-17T11:55:17.995Z,99932.71
2022-08-17T12:00:52.266Z,99934.82
2022-08-17T12:06:30.202Z,99935.48
2022-08-17T12:12:11.090Z,99930.39
2022-08-17T12:17:11.922Z,99926.81
2022-08-17T12:22:53.635Z,99927.81
2022-08-17T12:28:05.980Z,99931.44
2022-08-17T12:33:24.986Z,99930.66
2022-08-17T12:38:33.993Z,99936.89
2022-08-17T12:43:37.597Z,99940.09
2022-08-17T12:48:58.765Z,99942.67
2022-08-17T12:54:03.479Z,99940.20
2022-08-17T12:59:11.094Z,99946.64
2022-08-17T13:04:16.804Z,99950.67
2022-08-17T13:09:35.732Z,99949.65
2022-08-17T13:14:46.924Z,99944.71
2022-08-17T13:19:51.531Z,99942.09
2022-08-17T13:24:58.563Z,99941.92
2022-08-17T13:30:12.509Z,99938.98
2022-08-17T13:35:29.748Z,99935.55
2022-08-17T13:40:49.268Z,99927.90
2022-08-17T13:45:53.379Z,99926.86
2022-08-17T13:50:56.625Z,99930.39
2022-08-17T13:56:03.795Z,99932.79
2022-08-17T14:01:32.270Z,99929.56
2022-08-17T14:06:53.701Z,99924.92
2022-08-17T14:11:58.985Z,99920.17
2022-08-17T14:17:02.409Z,99920.63
2022-08-17T14:22:11.842Z,99921.30
2022-08-17T14:27:17.932Z,99920.70
2022-08-17T14:32:28.411Z,99925.54
2022-08-17T14:37:34.721Z,99925.52
2022-08-17T14:42:41.643Z,99927.63
2022-08-17T14:47:45.216Z,99922.00
2022-08-17T14:52:49.344Z,99920.78
2022-08-17T14:57:53.523Z,99931.02
2022-08-17T15:03:00.243Z,99925.27
2022-08-17T15:08:04.806Z,99920.26
2022-08-17T15:13:24.496Z,99924.50
2022-08-17T15:18:27.908Z,99927.63
2022-08-17T15:23:32.343Z,99927.52
2022-08-17T15:28:35.764Z,99924.58
2022-08-17T15:33:39.379Z,99920.48
2022-08-17T15:38:44.558Z,99918.92
2022-08-17T15:43:52.655Z,99918.87
2022-08-17T15:49:00.368Z,99918.33
2022-08-17T15:54:18.854Z,99918.52
2022-08-17T15:59:26.444Z,99925.31
2022-08-17T16:04:31.673Z,99928.65
2022-08-17T16:09:35.737Z,99927.41
2022-08-17T16:14:40.064Z,99923.86
2022-08-17T16:19:43.689Z,99926.45
2022-08-17T16:24:56.779Z,99933.66
2022-08-17T16:30:01.416Z,99939.50
2022-08-17T16:35:08.476Z,99946.83
2022-08-17T16:40:14.939Z,99943.56
2022-08-17T16:45:28.101Z,99944.50
2022-08-17T16:50:32.838Z,99947.25
2022-08-17T16:55:36.971Z,99945.30
2022-08-17T17:00:42.528Z,99946.11
2022-08-17T17:05:57.823Z,99948.13
2022-08-17T17:11:11.276Z,99952.53
2022-08-17T17:16:21.921Z,99960.10
2022-08-17T17:21:36.225Z,99960.20
2022-08-17T17:26:39.648Z,99968.08
2022-08-17T17:32:17.426Z,99964.05
2022-08-17T17:37:27.836Z,99965.75
2022-08-17T17:42:32.996Z,99973.92
2022-08-17T17:47:37.684Z,99974.41
2022-08-17T17:53:02.651Z,99985.67
2022-08-17T17:58:12.106Z,99984.52
2022-08-17T18:03:45.116Z,99988.73
2022-08-17T18:09:06.550Z,99994.59
2022-08-17T18:14:15.133Z,100000.13
2022-08-17T18:19:20.886Z,100005.20
2022-08-17T18:24:37.963Z,100008.50
2022-08-17T18:29:46.050Z,100018.88
2022-08-17T18:35:15.431Z,100024.86
2022-08-17T18:40:19.808Z,100027.98
2022-08-17T18:45:34.445Z,100024.50
2022-08-17T18:50:41.607Z,100022.93
2022-08-17T18:55:46.462Z,100027.54
2022-08-17T19:00:52.425Z,100037.51
2022-08-17T19:06:25.377Z,100036.58
2022-08-17T19:11:34.826Z,100037.04
2022-08-17T19:16:50.733Z,100047.08
2022-08-17T19:22:06.639Z,100055.06
2022-08-17T19:27:46.416Z,100053.99
2022-08-17T19:32:54.292Z,100052.29
2022-08-17T19:38:13.557Z,100053.52
2022-08-17T19:43:40.325Z,100057.36
2022-08-17T19:48:54.218Z,100066.96
2022-08-17T19:54:15.772Z,100077.40
2022-08-17T20:00:14.109Z,100081.68
2022-08-17T20:05:29.763Z,100093.39
2022-08-17T20:10:54.653Z,100103.58
2022-08-17T20:15:59.022Z,100111.42
2022-08-17T20:21:20.041Z,100109.46
2022-08-17T20:26:29.287Z,100102.82
2022-08-17T20:31:56.368Z,100100.27
2022-08-17T20:37:13.400Z,100109.36
2022-08-17T20:42:22.950Z,100109.45
2022-08-17T20:47:33.209Z,100112.23
2022-08-17T20:52:45.444Z,100108.83
2022-08-17T20:57:49.296Z,100111.87
2022-08-17T21:03:50.672Z,100117.88
2022-08-17T21:09:13.407Z,100113.73
2022-08-17T21:14:25.728Z,100117.99
2022-08-17T21:20:00.506Z,100120.66
2022-08-17T21:25:22.940Z,100122.11
2022-08-17T21:30:28.192Z,100133.82
2022-08-17T21:35:47.564Z,100138.16
2022-08-17T21:40:53.758Z,100128.18
2022-08-17T21:46:08.735Z,100130.21
2022-08-17T21:51:19.327Z,100135.52
2022-08-17T21:56:39.058Z,100125.79
2022-08-17T22:01:43.459Z,100121.58
2022-08-17T22:06:52.354Z,100114.30
2022-08-17T22:12:03.401Z,100117.80
2022-08-17T22:17:16.121Z,100109.91
2022-08-17T22:22:34.383Z,100104.45
2022-08-17T22:28:09.138Z,100095.23
2022-08-17T22:33:40.605Z,100095.48
2022-08-17T22:38:44.016Z,100088.58
2022-08-17T22:43:48.557Z,100087.31
2022-08-17T22:48:57.845Z,100100.96
2022-08-17T22:54:21.907Z,100101.10
2022-08-17T22:59:46.742Z,100108.14
2022-08-17T23:04:54.434Z,100106.98
2022-08-17T23:09:57.747Z,100107.00
2022-08-17T23:15:02.299Z,100107.98
2022-08-17T23:20:09.370Z,100106.21
2022-08-17T23:25:18.122Z,100100.92
2022-08-17T23:30:25.836Z,100097.42
2022-08-17T23:35:39.335Z,100097.05
2022-08-17T23:40:44.233Z,100103.08
2022-08-17T23:45:47.551Z,100104.33
2022-08-17T23:50:52.086Z,100110.15
2022-08-17T23:56:02.722Z,100108.34
